sensor_id;sensor_type;location;lat;lon;timestamp;pressure;altitude;pressure_sealevel;temperature;humidity
75409;BME280;63979;55.644;37.734;2023-02-25T00:04:50;98384.00;;;-1.83;80.18
75409;BME280;63979;55.644;37.734;2023-02-25T00:09:51;98380.06;;;-1.71;80.67
75409;BME280;63979;55.644;37.734;2023-02-25T00:14:52;98384.22;;;-1.67;80.23
75409;BME280;63979;55.644;37.734;2023-02-25T00:19:53;98381.41;;;-1.83;80.60
75409;BME280;63979;55.644;37.734;2023-02-25T00:24:57;98345.03;;;-2.09;80.62
75409;BME280;63979;55.644;37.734;2023-02-25T00:29:58;98356.94;;;-1.82;80.75
75409;BME280;63979;55.644;37.734;2023-02-25T00:34:59;98362.19;;;-1.62;80.63
75409;BME280;63979;55.644;37.734;2023-02-25T00:40:01;98323.94;;;-1.84;79.61
75409;BME280;63979;55.644;37.734;2023-02-25T00:45:03;98348.47;;;-1.67;79.97
75409;BME280;63979;55.644;37.734;2023-02-25T00:50:06;98352.00;;;-1.68;80.59
75409;BME280;63979;55.644;37.734;2023-02-25T00:55:09;98349.75;;;-1.77;81.13
75409;BME280;63979;55.644;37.734;2023-02-25T01:00:11;98344.94;;;-1.66;80.83
75409;BME280;63979;55.644;37.734;2023-02-25T01:05:18;98339.16;;;-1.74;80.92
75409;BME280;63979;55.644;37.734;2023-02-25T01:10:19;98337.81;;;-1.62;80.85
75409;BME280;63979;55.644;37.734;2023-02-25T01:15:20;98273.47;;;-1.86;80.59
75409;BME280;63979;55.644;37.734;2023-02-25T01:20:21;98330.75;;;-1.41;81.36
75409;BME280;63979;55.644;37.734;2023-02-25T01:25:24;98330.53;;;-1.55;80.96
75409;BME280;63979;55.644;37.734;2023-02-25T01:30:25;98320.22;;;-1.59;81.85
75409;BME280;63979;55.644;37.734;2023-02-25T01:35:26;98284.63;;;-1.63;80.70
75409;BME280;63979;55.644;37.734;2023-02-25T01:40:27;98317.69;;;-1.41;81.31
75409;BME280;63979;55.644;37.734;2023-02-25T01:45:29;98309.53;;;-1.54;81.01
75409;BME280;63979;55.644;37.734;2023-02-25T01:50:49;98311.94;;;-1.49;81.59
75409;BME280;63979;55.644;37.734;2023-02-25T01:55:52;98307.50;;;-1.47;81.65
75409;BME280;63979;55.644;37.734;2023-02-25T02:00:54;98260.81;;;-1.57;81.19
75409;BME280;63979;55.644;37.734;2023-02-25T02:06:03;98297.63;;;-1.22;80.54
75409;BME280;63979;55.644;37.734;2023-02-25T02:11:06;98273.19;;;-1.41;80.67
75409;BME280;63979;55.644;37.734;2023-02-25T02:16:25;98302.44;;;-1.32;81.09
75409;BME280;63979;55.644;37.734;2023-02-25T02:27:08;98297.63;;;-1.22;80.32
75409;BME280;63979;55.644;37.734;2023-02-25T02:32:18;98299.81;;;-1.13;80.49
75409;BME280;63979;55.644;37.734;2023-02-25T02:37:36;98286.44;;;-1.07;80.61
75409;BME280;63979;55.644;37.734;2023-02-25T02:47:57;98221.50;;;-1.55;81.18
75409;BME280;63979;55.644;37.734;2023-02-25T02:53:04;98266.50;;;-1.28;80.92
75409;BME280;63979;55.644;37.734;2023-02-25T02:58:47;98261.41;;;-1.31;81.23
75409;BME280;63979;55.644;37.734;2023-02-25T03:03:59;98274.13;;;-1.23;80.82
75409;BME280;63979;55.644;37.734;2023-02-25T03:09:06;98266.06;;;-1.19;81.00
75409;BME280;63979;55.644;37.734;2023-02-25T03:14:13;98253.31;;;-1.08;80.62
75409;BME280;63979;55.644;37.734;2023-02-25T03:19:20;98266.63;;;-1.12;80.53
75409;BME280;63979;55.644;37.734;2023-02-25T03:24:27;98254.31;;;-1.10;80.15
75409;BME280;63979;55.644;37.734;2023-02-25T03:29:32;98262.69;;;-1.02;80.47
75409;BME280;63979;55.644;37.734;2023-02-25T03:34:40;98254.16;;;-0.88;80.15
75409;BME280;63979;55.644;37.734;2023-02-25T03:39:47;98240.00;;;-0.84;79.91
75409;BME280;63979;55.644;37.734;2023-02-25T03:44:52;98245.63;;;-0.75;79.66
75409;BME280;63979;55.644;37.734;2023-02-25T03:55:07;98192.38;;;-0.92;78.91
75409;BME280;63979;55.644;37.734;2023-02-25T04:00:16;98252.50;;;-0.72;79.57
75409;BME280;63979;55.644;37.734;2023-02-25T04:05:21;98253.06;;;-0.48;78.98
75409;BME280;63979;55.644;37.734;2023-02-25T04:10:22;98241.00;;;-0.70;80.03
75409;BME280;63979;55.644;37.734;2023-02-25T04:15:23;98232.59;;;-0.76;80.20
75409;BME280;63979;55.644;37.734;2023-02-25T04:20:27;98242.22;;;-0.58;79.87
75409;BME280;63979;55.644;37.734;2023-02-25T04:25:29;98242.97;;;-0.56;79.62
75409;BME280;63979;55.644;37.734;2023-02-25T04:30:30;98241.59;;;-0.46;79.73
75409;BME280;63979;55.644;37.734;2023-02-25T04:35:32;98225.88;;;-0.46;79.72
75409;BME280;63979;55.644;37.734;2023-02-25T04:40:33;98235.66;;;-0.67;80.89
75409;BME280;63979;55.644;37.734;2023-02-25T04:45:34;98198.94;;;-0.84;81.69
75409;BME280;63979;55.644;37.734;2023-02-25T04:50:35;98246.84;;;-0.46;81.65
75409;BME280;63979;55.644;37.734;2023-02-25T04:55:35;98230.53;;;-0.34;80.78
75409;BME280;63979;55.644;37.734;2023-02-25T05:00:37;98251.59;;;-0.37;81.82
75409;BME280;63979;55.644;37.734;2023-02-25T05:05:38;98251.72;;;-0.21;81.07
75409;BME280;63979;55.644;37.734;2023-02-25T05:10:39;98228.81;;;-0.35;81.14
75409;BME280;63979;55.644;37.734;2023-02-25T05:15:40;98255.47;;;-0.09;80.71
75409;BME280;63979;55.644;37.734;2023-02-25T05:20:45;98196.22;;;-0.29;80.38
75409;BME280;63979;55.644;37.734;2023-02-25T05:25:47;98257.56;;;0.02;80.39
75409;BME280;63979;55.644;37.734;2023-02-25T05:30:48;98256.47;;;0.06;80.90
75409;BME280;63979;55.644;37.734;2023-02-25T05:35:51;98260.31;;;0.16;80.87
75409;BME280;63979;55.644;37.734;2023-02-25T05:40:53;98248.50;;;0.24;80.05
75409;BME280;63979;55.644;37.734;2023-02-25T05:45:55;98270.94;;;0.30;79.63
75409;BME280;63979;55.644;37.734;2023-02-25T05:51:02;98265.00;;;0.26;79.87
75409;BME280;63979;55.644;37.734;2023-02-25T05:56:09;98264.06;;;0.27;80.32
75409;BME280;63979;55.644;37.734;2023-02-25T06:01:16;98254.44;;;0.28;80.26
75409;BME280;63979;55.644;37.734;2023-02-25T06:06:19;98267.13;;;0.53;80.38
75409;BME280;63979;55.644;37.734;2023-02-25T06:11:26;98242.06;;;0.30;80.18
75409;BME280;63979;55.644;37.734;2023-02-25T06:16:28;98258.34;;;0.70;79.70
75409;BME280;63979;55.644;37.734;2023-02-25T06:21:33;98260.91;;;0.87;78.25
75409;BME280;63979;55.644;37.734;2023-02-25T06:26:34;98222.91;;;0.61;78.90
75409;BME280;63979;55.644;37.734;2023-02-25T06:31:35;98274.47;;;1.11;77.54
75409;BME280;63979;55.644;37.734;2023-02-25T06:36:36;98282.94;;;1.16;77.65
75409;BME280;63979;55.644;37.734;2023-02-25T06:41:37;98283.88;;;1.15;78.05
75409;BME280;63979;55.644;37.734;2023-02-25T06:46:38;98231.69;;;1.09;76.66
75409;BME280;63979;55.644;37.734;2023-02-25T06:51:39;98271.31;;;1.51;76.78
75409;BME280;63979;55.644;37.734;2023-02-25T06:56:40;98286.53;;;1.76;75.84
75409;BME280;63979;55.644;37.734;2023-02-25T07:01:42;98281.19;;;1.78;75.39
75409;BME280;63979;55.644;37.734;2023-02-25T07:06:43;98237.81;;;1.69;74.92
75409;BME280;63979;55.644;37.734;2023-02-25T07:11:45;98273.72;;;2.44;73.88
75409;BME280;63979;55.644;37.734;2023-02-25T07:16:46;98270.88;;;2.33;74.20
75409;BME280;63979;55.644;37.734;2023-02-25T07:21:47;98266.81;;;2.42;73.20
75409;BME280;63979;55.644;37.734;2023-02-25T07:26:49;98281.88;;;2.68;72.52
75409;BME280;63979;55.644;37.734;2023-02-25T07:31:50;98283.59;;;2.55;72.43
75409;BME280;63979;55.644;37.734;2023-02-25T07:36:51;98288.13;;;2.81;72.48
75409;BME280;63979;55.644;37.734;2023-02-25T07:41:52;98227.81;;;2.20;73.15
75409;BME280;63979;55.644;37.734;2023-02-25T07:46:54;98279.06;;;2.57;73.97
75409;BME280;63979;55.644;37.734;2023-02-25T07:51:55;98292.44;;;2.68;73.43
75409;BME280;63979;55.644;37.734;2023-02-25T07:56:56;98289.81;;;2.83;73.11
75409;BME280;63979;55.644;37.734;2023-02-25T08:01:57;98284.72;;;2.79;73.14
75409;BME280;63979;55.644;37.734;2023-02-25T08:06:57;98303.81;;;2.69;73.62
75409;BME280;63979;55.644;37.734;2023-02-25T08:11:59;98294.31;;;2.52;74.25
75409;BME280;63979;55.644;37.734;2023-02-25T08:17:00;98293.75;;;2.61;74.27
75409;BME280;63979;55.644;37.734;2023-02-25T08:22:02;98275.97;;;2.79;73.40
75409;BME280;63979;55.644;37.734;2023-02-25T08:27:05;98292.22;;;2.71;73.22
75409;BME280;63979;55.644;37.734;2023-02-25T08:32:09;98300.34;;;2.83;73.30
75409;BME280;63979;55.644;37.734;2023-02-25T08:37:10;98280.56;;;2.75;74.03
75409;BME280;63979;55.644;37.734;2023-02-25T08:42:11;98292.91;;;2.89;73.44
75409;BME280;63979;55.644;37.734;2023-02-25T08:47:14;98299.56;;;2.95;73.15
75409;BME280;63979;55.644;37.734;2023-02-25T08:52:16;98301.63;;;3.18;72.18
75409;BME280;63979;55.644;37.734;2023-02-25T08:57:17;98311.78;;;3.24;71.53
75409;BME280;63979;55.644;37.734;2023-02-25T09:02:18;98321.22;;;3.14;72.76
75409;BME280;63979;55.644;37.734;2023-02-25T09:07:19;98311.63;;;3.13;73.32
75409;BME280;63979;55.644;37.734;2023-02-25T09:12:20;98312.72;;;3.23;73.23
75409;BME280;63979;55.644;37.734;2023-02-25T09:17:21;98289.44;;;3.30;72.21
75409;BME280;63979;55.644;37.734;2023-02-25T09:22:21;98325.41;;;3.31;72.76
75409;BME280;63979;55.644;37.734;2023-02-25T09:27:23;98276.88;;;3.06;73.57
75409;BME280;63979;55.644;37.734;2023-02-25T09:32:24;98309.69;;;3.29;73.19
75409;BME280;63979;55.644;37.734;2023-02-25T09:37:32;98307.47;;;3.23;73.61
75409;BME280;63979;55.644;37.734;2023-02-25T09:43:41;98289.06;;;3.63;72.28
75409;BME280;63979;55.644;37.734;2023-02-25T09:49:11;98245.94;;;3.76;70.91
75409;BME280;63979;55.644;37.734;2023-02-25T09:59:17;98275.84;;;4.55;68.56
75409;BME280;63979;55.644;37.734;2023-02-25T10:04:30;98287.13;;;4.95;67.78
75409;BME280;63979;55.644;37.734;2023-02-25T10:09:50;98277.06;;;5.00;66.79
75409;BME280;63979;55.644;37.734;2023-02-25T10:25:24;98238.75;;;3.66;70.31
75409;BME280;63979;55.644;37.734;2023-02-25T10:35:42;98247.69;;;4.16;68.89
75409;BME280;63979;55.644;37.734;2023-02-25T10:40:43;98307.09;;;4.35;68.83
75409;BME280;63979;55.644;37.734;2023-02-25T10:45:46;98297.28;;;4.25;69.49
75409;BME280;63979;55.644;37.734;2023-02-25T10:56:06;98306.25;;;4.22;70.11
75409;BME280;63979;55.644;37.734;2023-02-25T11:01:15;98309.19;;;4.18;70.65
75409;BME280;63979;55.644;37.734;2023-02-25T11:06:28;98262.19;;;3.70;71.24
75409;BME280;63979;55.644;37.734;2023-02-25T11:11:34;98315.06;;;4.08;71.53
75409;BME280;63979;55.644;37.734;2023-02-25T11:16:38;98309.34;;;4.54;69.90
75409;BME280;63979;55.644;37.734;2023-02-25T11:21:40;98306.69;;;4.67;69.06
75409;BME280;63979;55.644;37.734;2023-02-25T11:26:44;98306.69;;;4.42;69.73
75409;BME280;63979;55.644;37.734;2023-02-25T11:32:11;98318.88;;;4.04;70.89
75409;BME280;63979;55.644;37.734;2023-02-25T11:37:38;98317.47;;;3.86;72.11
75409;BME280;63979;55.644;37.734;2023-02-25T11:42:40;98311.28;;;4.13;70.68
75409;BME280;63979;55.644;37.734;2023-02-25T11:47:41;98312.22;;;4.51;69.91
75409;BME280;63979;55.644;37.734;2023-02-25T11:52:46;98303.09;;;4.30;69.99
75409;BME280;63979;55.644;37.734;2023-02-25T12:09:01;98325.16;;;4.29;70.44
75409;BME280;63979;55.644;37.734;2023-02-25T12:41:34;98339.78;;;3.81;72.86
75409;BME280;63979;55.644;37.734;2023-02-25T12:52:09;98291.38;;;3.55;73.07
75409;BME280;63979;55.644;37.734;2023-02-25T13:02:46;98339.03;;;3.79;73.75
75409;BME280;63979;55.644;37.734;2023-02-25T13:30:00;98331.84;;;3.68;74.94
75409;BME280;63979;55.644;37.734;2023-02-25T13:40:41;98342.19;;;3.71;75.18
75409;BME280;63979;55.644;37.734;2023-02-25T13:46:18;98327.16;;;3.59;75.67
75409;BME280;63979;55.644;37.734;2023-02-25T13:51:56;98338.19;;;3.51;76.03
75409;BME280;63979;55.644;37.734;2023-02-25T13:57:34;98332.47;;;3.30;76.73
75409;BME280;63979;55.644;37.734;2023-02-25T14:24:26;98344.97;;;3.41;76.58
75409;BME280;63979;55.644;37.734;2023-02-25T14:29:47;98343.75;;;3.47;76.80
75409;BME280;63979;55.644;37.734;2023-02-25T14:35:13;98334.38;;;3.28;77.38
75409;BME280;63979;55.644;37.734;2023-02-25T14:50:51;98303.72;;;3.13;77.49
75409;BME280;63979;55.644;37.734;2023-02-25T14:56:50;98344.28;;;3.25;77.94
75409;BME280;63979;55.644;37.734;2023-02-25T15:12:15;98320.94;;;3.04;78.30
75409;BME280;63979;55.644;37.734;2023-02-25T15:22:29;98299.03;;;2.90;78.01
75409;BME280;63979;55.644;37.734;2023-02-25T15:27:43;98337.19;;;3.11;78.06
75409;BME280;63979;55.644;37.734;2023-02-25T15:32:48;98321.22;;;3.14;78.47
75409;BME280;63979;55.644;37.734;2023-02-25T15:42:54;98292.13;;;3.01;77.72
75409;BME280;63979;55.644;37.734;2023-02-25T16:14:29;98307.28;;;2.98;78.02
75409;BME280;63979;55.644;37.734;2023-02-25T16:19:35;98331.03;;;2.84;78.08
75409;BME280;63979;55.644;37.734;2023-02-25T16:24:39;98322.63;;;2.77;78.39
75409;BME280;63979;55.644;37.734;2023-02-25T16:40:40;98302.78;;;2.71;78.23
75409;BME280;63979;55.644;37.734;2023-02-25T16:45:57;98298.34;;;2.72;78.03
75409;BME280;63979;55.644;37.734;2023-02-25T16:51:08;98295.63;;;2.73;78.08
75409;BME280;63979;55.644;37.734;2023-02-25T16:56:24;98299.84;;;2.76;77.85
75409;BME280;63979;55.644;37.734;2023-02-25T17:01:29;98283.69;;;2.68;78.46
75409;BME280;63979;55.644;37.734;2023-02-25T17:06:30;98304.84;;;2.66;78.01
75409;BME280;63979;55.644;37.734;2023-02-25T17:11:31;98295.63;;;2.73;78.11
75409;BME280;63979;55.644;37.734;2023-02-25T17:16:37;98280.75;;;2.72;77.86
75409;BME280;63979;55.644;37.734;2023-02-25T17:21:42;98287.81;;;2.72;77.57
75409;BME280;63979;55.644;37.734;2023-02-25T17:26:47;98291.88;;;2.63;77.97
75409;BME280;63979;55.644;37.734;2023-02-25T17:31:51;98289.13;;;2.65;77.83
75409;BME280;63979;55.644;37.734;2023-02-25T17:36:53;98298.91;;;2.63;77.93
75409;BME280;63979;55.644;37.734;2023-02-25T17:41:55;98292.88;;;2.75;77.43
75409;BME280;63979;55.644;37.734;2023-02-25T17:46:57;98289.03;;;2.66;77.98
75409;BME280;63979;55.644;37.734;2023-02-25T17:52:13;98293.47;;;2.66;77.69
75409;BME280;63979;55.644;37.734;2023-02-25T17:57:20;98291.69;;;2.66;78.08
75409;BME280;63979;55.644;37.734;2023-02-25T18:07:35;98242.38;;;2.40;77.72
75409;BME280;63979;55.644;37.734;2023-02-25T18:12:38;98268.06;;;2.50;78.37
75409;BME280;63979;55.644;37.734;2023-02-25T18:17:42;98250.28;;;2.40;79.00
75409;BME280;63979;55.644;37.734;2023-02-25T18:22:47;98279.41;;;2.37;78.92
75409;BME280;63979;55.644;37.734;2023-02-25T18:27:51;98261.75;;;2.39;78.91
75409;BME280;63979;55.644;37.734;2023-02-25T18:32:53;98277.44;;;2.26;79.23
75409;BME280;63979;55.644;37.734;2023-02-25T18:37:58;98277.34;;;2.28;79.55
75409;BME280;63979;55.644;37.734;2023-02-25T18:42:59;98271.41;;;2.24;79.73
75409;BME280;63979;55.644;37.734;2023-02-25T18:48:01;98262.13;;;2.18;80.11
75409;BME280;63979;55.644;37.734;2023-02-25T18:53:02;98268.50;;;2.14;80.38
75409;BME280;63979;55.644;37.734;2023-02-25T18:58:03;98281.47;;;2.17;80.24
75409;BME280;63979;55.644;37.734;2023-02-25T19:03:05;98253.00;;;2.10;80.02
75409;BME280;63979;55.644;37.734;2023-02-25T19:08:15;98226.91;;;1.91;80.77
75409;BME280;63979;55.644;37.734;2023-02-25T19:13:20;98262.47;;;2.12;80.88
75409;BME280;63979;55.644;37.734;2023-02-25T19:18:22;98262.06;;;2.04;81.25
75409;BME280;63979;55.644;37.734;2023-02-25T19:23:24;98261.22;;;2.04;80.68
75409;BME280;63979;55.644;37.734;2023-02-25T19:28:25;98261.22;;;2.04;81.19
75409;BME280;63979;55.644;37.734;2023-02-25T19:33:26;98241.00;;;1.90;81.50
75409;BME280;63979;55.644;37.734;2023-02-25T19:38:28;98249.75;;;2.05;81.38
75409;BME280;63979;55.644;37.734;2023-02-25T19:43:30;98259.16;;;1.95;81.40
75409;BME280;63979;55.644;37.734;2023-02-25T19:48:32;98233.59;;;1.97;81.79
75409;BME280;63979;55.644;37.734;2023-02-25T19:53:33;98238.75;;;1.98;81.70
75409;BME280;63979;55.644;37.734;2023-02-25T19:58:35;98222.00;;;1.85;81.53
75409;BME280;63979;55.644;37.734;2023-02-25T20:03:36;98226.06;;;1.91;81.56
75409;BME280;63979;55.644;37.734;2023-02-25T20:08:37;98221.47;;;1.94;81.44
75409;BME280;63979;55.644;37.734;2023-02-25T20:13:39;98219.97;;;1.90;81.45
75409;BME280;63979;55.644;37.734;2023-02-25T20:18:40;98232.94;;;1.93;81.65
75409;BME280;63979;55.644;37.734;2023-02-25T20:23:41;98219.97;;;1.90;81.90
75409;BME280;63979;55.644;37.734;2023-02-25T20:28:43;98209.91;;;1.97;81.21
75409;BME280;63979;55.644;37.734;2023-02-25T20:33:47;98223.16;;;1.95;80.88
75409;BME280;63979;55.644;37.734;2023-02-25T20:43:59;98198.06;;;1.90;82.05
75409;BME280;63979;55.644;37.734;2023-02-25T20:49:01;98148.59;;;1.66;81.70
75409;BME280;63979;55.644;37.734;2023-02-25T20:54:02;98179.19;;;1.97;81.72
75409;BME280;63979;55.644;37.734;2023-02-25T20:59:04;98160.00;;;1.95;81.87
75409;BME280;63979;55.644;37.734;2023-02-25T21:04:06;98143.38;;;1.95;81.64
75409;BME280;63979;55.644;37.734;2023-02-25T21:09:07;98135.00;;;2.02;81.40
75409;BME280;63979;55.644;37.734;2023-02-25T21:14:08;98089.72;;;1.69;81.92
75409;BME280;63979;55.644;37.734;2023-02-25T21:19:10;98111.91;;;1.93;82.68
75409;BME280;63979;55.644;37.734;2023-02-25T21:24:11;98081.66;;;1.86;82.42
75409;BME280;63979;55.644;37.734;2023-02-25T21:29:14;98098.28;;;2.01;82.04
75409;BME280;63979;55.644;37.734;2023-02-25T21:34:15;98137.09;;;1.97;82.78
75409;BME280;63979;55.644;37.734;2023-02-25T21:39:17;98140.19;;;2.04;82.63
75409;BME280;63979;55.644;37.734;2023-02-25T21:44:18;98132.19;;;2.05;82.05
75409;BME280;63979;55.644;37.734;2023-02-25T21:49:20;98083.41;;;1.71;82.45
75409;BME280;63979;55.644;37.734;2023-02-25T21:54:21;98111.16;;;1.77;82.22
75409;BME280;63979;55.644;37.734;2023-02-25T21:59:22;98072.34;;;1.66;81.91
75409;BME280;63979;55.644;37.734;2023-02-25T22:04:23;98095.53;;;1.60;81.53
75409;BME280;63979;55.644;37.734;2023-02-25T22:09:24;98120.91;;;2.03;81.69
75409;BME280;63979;55.644;37.734;2023-02-25T22:14:25;98115.47;;;2.06;81.18
75409;BME280;63979;55.644;37.734;2023-02-25T22:19:26;98129.19;;;1.97;81.54
75409;BME280;63979;55.644;37.734;2023-02-25T22:24:27;98134.34;;;1.99;81.69
75409;BME280;63979;55.644;37.734;2023-02-25T22:29:28;98076.41;;;1.86;81.22
75409;BME280;63979;55.644;37.734;2023-02-25T22:34:29;98082.19;;;2.05;81.58
75409;BME280;63979;55.644;37.734;2023-02-25T22:39:30;98075.63;;;1.98;81.24
75409;BME280;63979;55.644;37.734;2023-02-25T22:44:31;98068.69;;;1.97;81.66
75409;BME280;63979;55.644;37.734;2023-02-25T22:49:31;98064.16;;;1.99;81.69
75409;BME280;63979;55.644;37.734;2023-02-25T22:54:32;98060.59;;;2.00;81.35
75409;BME280;63979;55.644;37.734;2023-02-25T22:59:33;98061.34;;;2.02;81.21
75409;BME280;63979;55.644;37.734;2023-02-25T23:04:34;98015.50;;;1.92;81.16
75409;BME280;63979;55.644;37.734;2023-02-25T23:09:36;98036.72;;;2.03;81.44
75409;BME280;63979;55.644;37.734;2023-02-25T23:14:37;98024.31;;;2.05;81.78
75409;BME280;63979;55.644;37.734;2023-02-25T23:19:38;98024.59;;;2.01;81.88
75409;BME280;63979;55.644;37.734;2023-02-25T23:24:39;98005.78;;;2.07;81.66
75409;BME280;63979;55.644;37.734;2023-02-25T23:29:40;97992.00;;;2.03;81.69
75409;BME280;63979;55.644;37.734;2023-02-25T23:34:41;97977.53;;;1.96;81.61
75409;BME280;63979;55.644;37.734;2023-02-25T23:39:43;97967.75;;;1.98;82.25
75409;BME280;63979;55.644;37.734;2023-02-25T23:44:44;97961.84;;;1.95;82.21
75409;BME280;63979;55.644;37.734;2023-02-25T23:49:46;97930.38;;;1.93;82.42
75409;BME280;63979;55.644;37.734;2023-02-25T23:54:47;97921.16;;;2.00;82.35
75409;BME280;63979;55.644;37.734;2023-02-25T23:59:48;97900.53;;;2.07;82.13
